sensor_id;sensor_type;location;lat;lon;timestamp;P1;durP1;ratioP1;P2;durP2;ratioP2
70505;SDS011;58032;49.820;6.274;2022-11-15T00:00:19;11.00;;;6.05;;
70505;SDS011;58032;49.820;6.274;2022-11-15T00:03:05;12.05;;;5.95;;
70505;SDS011;58032;49.820;6.274;2022-11-15T00:05:51;9.27;;;5.00;;
70505;SDS011;58032;49.820;6.274;2022-11-15T00:08:36;12.55;;;6.43;;
70505;SDS011;58032;49.820;6.274;2022-11-15T00:11:22;9.83;;;5.33;;
70505;SDS011;58032;49.820;6.274;2022-11-15T00:14:07;11.93;;;6.22;;
70505;SDS011;58032;49.820;6.274;2022-11-15T00:16:52;10.43;;;5.18;;
70505;SDS011;58032;49.820;6.274;2022-11-15T00:19:38;12.23;;;5.20;;
70505;SDS011;58032;49.820;6.274;2022-11-15T00:22:23;11.38;;;5.38;;
70505;SDS011;58032;49.820;6.274;2022-11-15T00:25:09;12.33;;;5.53;;
70505;SDS011;58032;49.820;6.274;2022-11-15T00:27:55;11.10;;;5.32;;
70505;SDS011;58032;49.820;6.274;2022-11-15T00:30:41;10.50;;;5.00;;
70505;SDS011;58032;49.820;6.274;2022-11-15T00:33:27;10.43;;;5.05;;
70505;SDS011;58032;49.820;6.274;2022-11-15T00:36:12;11.50;;;5.40;;
70505;SDS011;58032;49.820;6.274;2022-11-15T00:38:58;9.33;;;4.77;;
70505;SDS011;58032;49.820;6.274;2022-11-15T00:41:43;9.70;;;4.10;;
70505;SDS011;58032;49.820;6.274;2022-11-15T00:44:28;7.40;;;3.55;;
70505;SDS011;58032;49.820;6.274;2022-11-15T00:47:14;8.23;;;3.88;;
70505;SDS011;58032;49.820;6.274;2022-11-15T00:49:59;8.38;;;4.25;;
70505;SDS011;58032;49.820;6.274;2022-11-15T00:52:44;9.43;;;4.57;;
70505;SDS011;58032;49.820;6.274;2022-11-15T00:55:30;8.02;;;3.70;;
70505;SDS011;58032;49.820;6.274;2022-11-15T00:58:16;8.25;;;3.78;;
70505;SDS011;58032;49.820;6.274;2022-11-15T01:01:08;9.95;;;4.97;;
70505;SDS011;58032;49.820;6.274;2022-11-15T01:03:55;10.60;;;4.93;;
70505;SDS011;58032;49.820;6.274;2022-11-15T01:06:44;8.93;;;5.03;;
70505;SDS011;58032;49.820;6.274;2022-11-15T01:09:29;8.13;;;3.00;;
70505;SDS011;58032;49.820;6.274;2022-11-15T01:12:15;9.55;;;4.50;;
70505;SDS011;58032;49.820;6.274;2022-11-15T01:15:00;10.45;;;4.28;;
70505;SDS011;58032;49.820;6.274;2022-11-15T01:17:46;10.23;;;4.35;;
70505;SDS011;58032;49.820;6.274;2022-11-15T01:20:31;11.77;;;4.77;;
70505;SDS011;58032;49.820;6.274;2022-11-15T01:23:16;9.18;;;4.32;;
70505;SDS011;58032;49.820;6.274;2022-11-15T01:26:02;11.18;;;4.75;;
70505;SDS011;58032;49.820;6.274;2022-11-15T01:28:50;7.82;;;3.97;;
70505;SDS011;58032;49.820;6.274;2022-11-15T01:31:36;10.00;;;4.35;;
70505;SDS011;58032;49.820;6.274;2022-11-15T01:34:21;10.90;;;4.60;;
70505;SDS011;58032;49.820;6.274;2022-11-15T01:37:07;8.40;;;2.83;;
70505;SDS011;58032;49.820;6.274;2022-11-15T01:39:52;9.15;;;4.20;;
70505;SDS011;58032;49.820;6.274;2022-11-15T01:42:38;7.70;;;3.28;;
70505;SDS011;58032;49.820;6.274;2022-11-15T01:45:24;8.18;;;3.40;;
70505;SDS011;58032;49.820;6.274;2022-11-15T01:48:10;7.17;;;2.30;;
70505;SDS011;58032;49.820;6.274;2022-11-15T01:50:56;6.50;;;3.00;;
70505;SDS011;58032;49.820;6.274;2022-11-15T01:53:42;7.47;;;3.03;;
70505;SDS011;58032;49.820;6.274;2022-11-15T01:56:33;5.93;;;2.97;;
70505;SDS011;58032;49.820;6.274;2022-11-15T01:59:24;5.88;;;2.50;;
70505;SDS011;58032;49.820;6.274;2022-11-15T02:02:09;5.17;;;2.63;;
70505;SDS011;58032;49.820;6.274;2022-11-15T02:04:54;5.13;;;2.03;;
70505;SDS011;58032;49.820;6.274;2022-11-15T02:07:40;6.13;;;2.42;;
70505;SDS011;58032;49.820;6.274;2022-11-15T02:10:25;5.55;;;2.20;;
70505;SDS011;58032;49.820;6.274;2022-11-15T02:13:13;7.10;;;2.35;;
70505;SDS011;58032;49.820;6.274;2022-11-15T02:16:04;5.03;;;1.80;;
70505;SDS011;58032;49.820;6.274;2022-11-15T02:19:05;4.78;;;1.73;;
70505;SDS011;58032;49.820;6.274;2022-11-15T02:31:43;4.80;;;1.87;;
70505;SDS011;58032;49.820;6.274;2022-11-15T02:34:43;4.07;;;1.92;;
70505;SDS011;58032;49.820;6.274;2022-11-15T02:37:49;5.82;;;2.00;;
70505;SDS011;58032;49.820;6.274;2022-11-15T02:43:48;4.93;;;1.65;;
70505;SDS011;58032;49.820;6.274;2022-11-15T02:46:43;4.17;;;1.60;;
70505;SDS011;58032;49.820;6.274;2022-11-15T02:49:53;3.97;;;1.75;;
70505;SDS011;58032;49.820;6.274;2022-11-15T02:52:44;4.30;;;1.63;;
70505;SDS011;58032;49.820;6.274;2022-11-15T02:55:34;6.22;;;1.65;;
70505;SDS011;58032;49.820;6.274;2022-11-15T03:01:32;5.47;;;1.30;;
70505;SDS011;58032;49.820;6.274;2022-11-15T03:07:57;5.35;;;1.60;;
70505;SDS011;58032;49.820;6.274;2022-11-15T03:20:15;3.90;;;1.33;;
70505;SDS011;58032;49.820;6.274;2022-11-15T03:23:04;3.72;;;1.45;;
70505;SDS011;58032;49.820;6.274;2022-11-15T03:25:52;3.90;;;1.40;;
70505;SDS011;58032;49.820;6.274;2022-11-15T03:31:30;4.17;;;0.90;;
70505;SDS011;58032;49.820;6.274;2022-11-15T03:34:38;4.05;;;1.60;;
70505;SDS011;58032;49.820;6.274;2022-11-15T03:37:59;4.90;;;1.48;;
70505;SDS011;58032;49.820;6.274;2022-11-15T03:41:01;4.30;;;1.25;;
70505;SDS011;58032;49.820;6.274;2022-11-15T03:46:40;3.40;;;1.10;;
70505;SDS011;58032;49.820;6.274;2022-11-15T03:49:33;3.30;;;0.95;;
70505;SDS011;58032;49.820;6.274;2022-11-15T03:52:20;4.55;;;1.20;;
70505;SDS011;58032;49.820;6.274;2022-11-15T03:55:08;4.00;;;1.27;;
70505;SDS011;58032;49.820;6.274;2022-11-15T03:57:56;4.00;;;1.20;;
70505;SDS011;58032;49.820;6.274;2022-11-15T04:00:44;2.80;;;0.90;;
70505;SDS011;58032;49.820;6.274;2022-11-15T04:03:29;4.70;;;0.93;;
70505;SDS011;58032;49.820;6.274;2022-11-15T04:06:15;3.75;;;1.38;;
70505;SDS011;58032;49.820;6.274;2022-11-15T04:09:00;4.78;;;1.25;;
70505;SDS011;58032;49.820;6.274;2022-11-15T04:11:45;4.60;;;1.05;;
70505;SDS011;58032;49.820;6.274;2022-11-15T04:14:31;3.73;;;1.40;;
70505;SDS011;58032;49.820;6.274;2022-11-15T04:17:16;5.28;;;1.42;;
70505;SDS011;58032;49.820;6.274;2022-11-15T04:20:02;7.57;;;1.30;;
70505;SDS011;58032;49.820;6.274;2022-11-15T04:23:12;3.05;;;1.02;;
70505;SDS011;58032;49.820;6.274;2022-11-15T04:26:19;3.10;;;1.08;;
70505;SDS011;58032;49.820;6.274;2022-11-15T04:29:06;3.37;;;1.20;;
70505;SDS011;58032;49.820;6.274;2022-11-15T04:32:11;4.28;;;0.73;;
70505;SDS011;58032;49.820;6.274;2022-11-15T04:34:56;3.78;;;1.20;;
70505;SDS011;58032;49.820;6.274;2022-11-15T04:37:42;2.75;;;0.75;;
70505;SDS011;58032;49.820;6.274;2022-11-15T04:40:30;3.53;;;1.10;;
70505;SDS011;58032;49.820;6.274;2022-11-15T04:43:16;5.10;;;1.30;;
70505;SDS011;58032;49.820;6.274;2022-11-15T04:46:01;7.03;;;1.20;;
70505;SDS011;58032;49.820;6.274;2022-11-15T04:48:47;3.03;;;1.08;;
70505;SDS011;58032;49.820;6.274;2022-11-15T04:51:32;3.25;;;1.20;;
70505;SDS011;58032;49.820;6.274;2022-11-15T04:54:17;4.72;;;1.23;;
70505;SDS011;58032;49.820;6.274;2022-11-15T04:57:03;3.30;;;1.00;;
70505;SDS011;58032;49.820;6.274;2022-11-15T04:59:48;2.55;;;0.77;;
70505;SDS011;58032;49.820;6.274;2022-11-15T05:02:33;3.75;;;1.00;;
70505;SDS011;58032;49.820;6.274;2022-11-15T05:05:38;3.83;;;1.08;;
70505;SDS011;58032;49.820;6.274;2022-11-15T05:08:23;5.05;;;1.20;;
70505;SDS011;58032;49.820;6.274;2022-11-15T05:11:09;3.23;;;1.30;;
70505;SDS011;58032;49.820;6.274;2022-11-15T05:13:54;3.78;;;1.38;;
70505;SDS011;58032;49.820;6.274;2022-11-15T05:16:40;3.30;;;1.08;;
70505;SDS011;58032;49.820;6.274;2022-11-15T05:19:26;4.30;;;1.02;;
70505;SDS011;58032;49.820;6.274;2022-11-15T05:22:12;3.25;;;1.23;;
70505;SDS011;58032;49.820;6.274;2022-11-15T05:24:57;4.57;;;1.20;;
70505;SDS011;58032;49.820;6.274;2022-11-15T05:27:42;4.40;;;1.40;;
70505;SDS011;58032;49.820;6.274;2022-11-15T05:30:27;4.50;;;1.27;;
70505;SDS011;58032;49.820;6.274;2022-11-15T05:33:13;4.30;;;1.00;;
70505;SDS011;58032;49.820;6.274;2022-11-15T05:36:00;2.53;;;0.85;;
70505;SDS011;58032;49.820;6.274;2022-11-15T05:38:50;3.07;;;0.90;;
70505;SDS011;58032;49.820;6.274;2022-11-15T05:41:36;3.75;;;1.17;;
70505;SDS011;58032;49.820;6.274;2022-11-15T05:44:26;3.63;;;1.15;;
70505;SDS011;58032;49.820;6.274;2022-11-15T05:47:14;5.80;;;1.33;;
70505;SDS011;58032;49.820;6.274;2022-11-15T05:50:12;2.67;;;1.10;;
70505;SDS011;58032;49.820;6.274;2022-11-15T05:53:00;3.47;;;1.17;;
70505;SDS011;58032;49.820;6.274;2022-11-15T05:55:49;3.80;;;1.20;;
70505;SDS011;58032;49.820;6.274;2022-11-15T05:58:35;2.90;;;1.10;;
70505;SDS011;58032;49.820;6.274;2022-11-15T06:01:22;3.75;;;0.82;;
70505;SDS011;58032;49.820;6.274;2022-11-15T06:04:08;3.92;;;0.77;;
70505;SDS011;58032;49.820;6.274;2022-11-15T06:06:53;4.67;;;0.83;;
70505;SDS011;58032;49.820;6.274;2022-11-15T06:09:39;2.80;;;0.82;;
70505;SDS011;58032;49.820;6.274;2022-11-15T06:12:25;3.17;;;0.73;;
70505;SDS011;58032;49.820;6.274;2022-11-15T06:15:10;5.80;;;1.25;;
70505;SDS011;58032;49.820;6.274;2022-11-15T06:17:56;3.55;;;1.27;;
70505;SDS011;58032;49.820;6.274;2022-11-15T06:20:44;4.60;;;0.90;;
70505;SDS011;58032;49.820;6.274;2022-11-15T06:23:33;4.20;;;0.93;;
70505;SDS011;58032;49.820;6.274;2022-11-15T06:26:19;4.03;;;1.05;;
70505;SDS011;58032;49.820;6.274;2022-11-15T06:29:05;3.80;;;0.90;;
70505;SDS011;58032;49.820;6.274;2022-11-15T06:31:50;2.55;;;0.80;;
70505;SDS011;58032;49.820;6.274;2022-11-15T06:34:36;2.90;;;1.00;;
70505;SDS011;58032;49.820;6.274;2022-11-15T06:37:21;4.78;;;1.10;;
70505;SDS011;58032;49.820;6.274;2022-11-15T06:40:07;3.08;;;1.17;;
70505;SDS011;58032;49.820;6.274;2022-11-15T06:42:58;5.72;;;1.55;;
70505;SDS011;58032;49.820;6.274;2022-11-15T06:45:44;4.22;;;1.13;;
70505;SDS011;58032;49.820;6.274;2022-11-15T06:48:29;6.43;;;1.57;;
70505;SDS011;58032;49.820;6.274;2022-11-15T06:51:16;4.55;;;1.13;;
70505;SDS011;58032;49.820;6.274;2022-11-15T06:54:01;4.28;;;1.30;;
70505;SDS011;58032;49.820;6.274;2022-11-15T06:56:47;4.55;;;1.52;;
70505;SDS011;58032;49.820;6.274;2022-11-15T06:59:32;5.00;;;1.27;;
70505;SDS011;58032;49.820;6.274;2022-11-15T07:02:20;6.13;;;0.93;;
70505;SDS011;58032;49.820;6.274;2022-11-15T07:05:05;3.38;;;1.00;;
70505;SDS011;58032;49.820;6.274;2022-11-15T07:07:54;5.72;;;1.20;;
70505;SDS011;58032;49.820;6.274;2022-11-15T07:10:41;4.80;;;1.58;;
70505;SDS011;58032;49.820;6.274;2022-11-15T07:13:27;5.57;;;1.17;;
70505;SDS011;58032;49.820;6.274;2022-11-15T07:16:14;3.00;;;0.93;;
70505;SDS011;58032;49.820;6.274;2022-11-15T07:19:00;4.47;;;1.30;;
70505;SDS011;58032;49.820;6.274;2022-11-15T07:21:46;2.92;;;1.10;;
70505;SDS011;58032;49.820;6.274;2022-11-15T07:24:31;4.63;;;1.38;;
70505;SDS011;58032;49.820;6.274;2022-11-15T07:27:17;4.47;;;1.40;;
70505;SDS011;58032;49.820;6.274;2022-11-15T07:30:03;3.93;;;1.07;;
70505;SDS011;58032;49.820;6.274;2022-11-15T07:32:59;3.38;;;1.00;;
70505;SDS011;58032;49.820;6.274;2022-11-15T07:35:45;3.10;;;0.93;;
70505;SDS011;58032;49.820;6.274;2022-11-15T07:38:34;5.78;;;1.20;;
70505;SDS011;58032;49.820;6.274;2022-11-15T07:41:23;6.15;;;1.02;;
70505;SDS011;58032;49.820;6.274;2022-11-15T07:44:09;5.30;;;1.20;;
70505;SDS011;58032;49.820;6.274;2022-11-15T07:46:54;4.78;;;1.00;;
70505;SDS011;58032;49.820;6.274;2022-11-15T07:49:40;2.85;;;1.05;;
70505;SDS011;58032;49.820;6.274;2022-11-15T07:52:25;5.13;;;1.25;;
70505;SDS011;58032;49.820;6.274;2022-11-15T07:55:10;2.47;;;0.85;;
70505;SDS011;58032;49.820;6.274;2022-11-15T07:58:00;3.77;;;1.00;;
70505;SDS011;58032;49.820;6.274;2022-11-15T08:00:47;4.57;;;1.48;;
70505;SDS011;58032;49.820;6.274;2022-11-15T08:03:32;5.05;;;1.70;;
70505;SDS011;58032;49.820;6.274;2022-11-15T08:06:18;5.63;;;1.77;;
70505;SDS011;58032;49.820;6.274;2022-11-15T08:09:03;4.72;;;1.67;;
70505;SDS011;58032;49.820;6.274;2022-11-15T08:11:49;5.30;;;1.70;;
70505;SDS011;58032;49.820;6.274;2022-11-15T08:14:35;6.32;;;2.20;;
70505;SDS011;58032;49.820;6.274;2022-11-15T08:17:20;7.30;;;1.90;;
70505;SDS011;58032;49.820;6.274;2022-11-15T08:20:07;5.07;;;1.73;;
70505;SDS011;58032;49.820;6.274;2022-11-15T08:22:53;7.38;;;2.60;;
70505;SDS011;58032;49.820;6.274;2022-11-15T08:25:38;8.00;;;2.33;;
70505;SDS011;58032;49.820;6.274;2022-11-15T08:28:24;5.35;;;2.10;;
70505;SDS011;58032;49.820;6.274;2022-11-15T08:31:12;5.10;;;2.50;;
70505;SDS011;58032;49.820;6.274;2022-11-15T08:34:00;7.00;;;2.58;;
70505;SDS011;58032;49.820;6.274;2022-11-15T08:36:46;5.15;;;2.08;;
70505;SDS011;58032;49.820;6.274;2022-11-15T08:39:32;5.13;;;1.87;;
70505;SDS011;58032;49.820;6.274;2022-11-15T08:42:17;6.45;;;2.35;;
70505;SDS011;58032;49.820;6.274;2022-11-15T08:45:04;6.72;;;2.10;;
70505;SDS011;58032;49.820;6.274;2022-11-15T08:47:50;5.47;;;2.20;;
70505;SDS011;58032;49.820;6.274;2022-11-15T08:50:38;5.53;;;2.28;;
70505;SDS011;58032;49.820;6.274;2022-11-15T08:53:23;4.83;;;1.97;;
70505;SDS011;58032;49.820;6.274;2022-11-15T08:56:10;7.75;;;2.13;;
70505;SDS011;58032;49.820;6.274;2022-11-15T08:58:57;8.23;;;2.17;;
70505;SDS011;58032;49.820;6.274;2022-11-15T09:01:42;9.23;;;2.33;;
70505;SDS011;58032;49.820;6.274;2022-11-15T09:04:28;4.00;;;1.63;;
70505;SDS011;58032;49.820;6.274;2022-11-15T09:07:14;8.53;;;2.33;;
70505;SDS011;58032;49.820;6.274;2022-11-15T09:09:59;5.72;;;2.30;;
70505;SDS011;58032;49.820;6.274;2022-11-15T09:12:45;5.72;;;2.05;;
70505;SDS011;58032;49.820;6.274;2022-11-15T09:15:33;6.20;;;1.80;;
70505;SDS011;58032;49.820;6.274;2022-11-15T09:18:19;5.05;;;2.05;;
70505;SDS011;58032;49.820;6.274;2022-11-15T09:21:07;6.07;;;1.87;;
70505;SDS011;58032;49.820;6.274;2022-11-15T09:23:53;5.30;;;1.85;;
70505;SDS011;58032;49.820;6.274;2022-11-15T09:26:39;4.72;;;1.95;;
70505;SDS011;58032;49.820;6.274;2022-11-15T09:29:26;4.97;;;1.90;;
70505;SDS011;58032;49.820;6.274;2022-11-15T09:32:11;4.65;;;1.77;;
70505;SDS011;58032;49.820;6.274;2022-11-15T09:34:57;3.97;;;1.60;;
70505;SDS011;58032;49.820;6.274;2022-11-15T09:37:43;4.82;;;1.90;;
70505;SDS011;58032;49.820;6.274;2022-11-15T09:40:29;5.15;;;1.80;;
70505;SDS011;58032;49.820;6.274;2022-11-15T09:50:17;3.97;;;1.30;;
70505;SDS011;58032;49.820;6.274;2022-11-15T09:52:55;5.40;;;1.30;;
70505;SDS011;58032;49.820;6.274;2022-11-15T09:55:23;5.45;;;1.80;;
70505;SDS011;58032;49.820;6.274;2022-11-15T09:58:10;5.68;;;1.30;;
70505;SDS011;58032;49.820;6.274;2022-11-15T10:01:04;5.68;;;1.40;;
70505;SDS011;58032;49.820;6.274;2022-11-15T10:03:38;4.40;;;1.57;;
70505;SDS011;58032;49.820;6.274;2022-11-15T10:06:08;4.53;;;1.35;;
70505;SDS011;58032;49.820;6.274;2022-11-15T10:08:50;3.88;;;1.63;;
70505;SDS011;58032;49.820;6.274;2022-11-15T10:11:23;4.63;;;2.10;;
70505;SDS011;58032;49.820;6.274;2022-11-15T10:14:08;4.38;;;2.03;;
70505;SDS011;58032;49.820;6.274;2022-11-15T10:19:24;6.05;;;2.60;;
70505;SDS011;58032;49.820;6.274;2022-11-15T10:21:59;6.20;;;2.50;;
70505;SDS011;58032;49.820;6.274;2022-11-15T10:24:36;7.20;;;2.47;;
70505;SDS011;58032;49.820;6.274;2022-11-15T10:27:12;5.15;;;2.70;;
70505;SDS011;58032;49.820;6.274;2022-11-15T10:29:47;8.23;;;3.10;;
70505;SDS011;58032;49.820;6.274;2022-11-15T10:32:16;6.35;;;3.40;;
70505;SDS011;58032;49.820;6.274;2022-11-15T10:34:48;6.68;;;3.00;;
70505;SDS011;58032;49.820;6.274;2022-11-15T10:37:37;7.65;;;3.42;;
70505;SDS011;58032;49.820;6.274;2022-11-15T10:40:14;6.07;;;3.55;;
70505;SDS011;58032;49.820;6.274;2022-11-15T10:42:44;8.07;;;3.90;;
70505;SDS011;58032;49.820;6.274;2022-11-15T10:45:29;6.15;;;3.30;;
70505;SDS011;58032;49.820;6.274;2022-11-15T10:50:41;7.40;;;3.45;;
70505;SDS011;58032;49.820;6.274;2022-11-15T10:53:17;6.72;;;3.55;;
70505;SDS011;58032;49.820;6.274;2022-11-15T10:55:47;6.47;;;3.30;;
70505;SDS011;58032;49.820;6.274;2022-11-15T11:00:48;6.45;;;3.40;;
70505;SDS011;58032;49.820;6.274;2022-11-15T11:08:40;7.03;;;3.40;;
70505;SDS011;58032;49.820;6.274;2022-11-15T11:11:19;8.95;;;2.95;;
70505;SDS011;58032;49.820;6.274;2022-11-15T11:13:46;6.07;;;2.92;;
70505;SDS011;58032;49.820;6.274;2022-11-15T11:22:09;5.13;;;2.70;;
70505;SDS011;58032;49.820;6.274;2022-11-15T11:25:04;6.95;;;3.17;;
70505;SDS011;58032;49.820;6.274;2022-11-15T11:27:41;4.88;;;2.67;;
70505;SDS011;58032;49.820;6.274;2022-11-15T11:30:23;10.82;;;3.00;;
70505;SDS011;58032;49.820;6.274;2022-11-15T11:36:07;5.50;;;2.17;;
70505;SDS011;58032;49.820;6.274;2022-11-15T11:38:48;5.30;;;2.38;;
70505;SDS011;58032;49.820;6.274;2022-11-15T11:44:04;5.68;;;2.58;;
70505;SDS011;58032;49.820;6.274;2022-11-15T11:46:56;6.55;;;2.50;;
70505;SDS011;58032;49.820;6.274;2022-11-15T11:49:29;5.17;;;2.20;;
70505;SDS011;58032;49.820;6.274;2022-11-15T11:52:05;5.93;;;2.13;;
70505;SDS011;58032;49.820;6.274;2022-11-15T11:54:41;6.85;;;2.28;;
70505;SDS011;58032;49.820;6.274;2022-11-15T11:57:17;4.60;;;2.10;;
70505;SDS011;58032;49.820;6.274;2022-11-15T12:02:29;5.70;;;2.57;;
70505;SDS011;58032;49.820;6.274;2022-11-15T12:05:07;6.00;;;2.10;;
70505;SDS011;58032;49.820;6.274;2022-11-15T12:07:39;4.80;;;2.20;;
70505;SDS011;58032;49.820;6.274;2022-11-15T12:10:25;5.47;;;1.95;;
70505;SDS011;58032;49.820;6.274;2022-11-15T12:12:58;4.10;;;1.95;;
70505;SDS011;58032;49.820;6.274;2022-11-15T12:15:42;5.23;;;2.17;;
70505;SDS011;58032;49.820;6.274;2022-11-15T12:18:14;4.53;;;2.13;;
70505;SDS011;58032;49.820;6.274;2022-11-15T12:20:54;4.13;;;2.15;;
70505;SDS011;58032;49.820;6.274;2022-11-15T12:23:31;6.00;;;2.20;;
70505;SDS011;58032;49.820;6.274;2022-11-15T12:26:08;4.72;;;2.05;;
70505;SDS011;58032;49.820;6.274;2022-11-15T12:28:42;4.60;;;1.90;;
70505;SDS011;58032;49.820;6.274;2022-11-15T12:34:02;5.35;;;2.72;;
70505;SDS011;58032;49.820;6.274;2022-11-15T12:36:40;5.38;;;2.33;;
70505;SDS011;58032;49.820;6.274;2022-11-15T12:39:10;5.03;;;2.38;;
70505;SDS011;58032;49.820;6.274;2022-11-15T12:44:13;4.70;;;2.10;;
70505;SDS011;58032;49.820;6.274;2022-11-15T12:59:47;6.32;;;2.17;;
70505;SDS011;58032;49.820;6.274;2022-11-15T13:22:51;4.10;;;2.03;;
70505;SDS011;58032;49.820;6.274;2022-11-15T13:26:03;3.95;;;2.03;;
70505;SDS011;58032;49.820;6.274;2022-11-15T13:33:41;3.33;;;1.67;;
70505;SDS011;58032;49.820;6.274;2022-11-15T13:39:00;7.10;;;2.03;;
70505;SDS011;58032;49.820;6.274;2022-11-15T13:41:36;3.83;;;1.60;;
70505;SDS011;58032;49.820;6.274;2022-11-15T13:44:20;3.00;;;1.75;;
70505;SDS011;58032;49.820;6.274;2022-11-15T13:47:00;4.10;;;1.53;;
70505;SDS011;58032;49.820;6.274;2022-11-15T13:49:47;3.75;;;1.52;;
70505;SDS011;58032;49.820;6.274;2022-11-15T13:52:14;3.60;;;1.77;;
70505;SDS011;58032;49.820;6.274;2022-11-15T13:54:47;3.13;;;1.50;;
70505;SDS011;58032;49.820;6.274;2022-11-15T13:57:29;5.22;;;2.10;;
70505;SDS011;58032;49.820;6.274;2022-11-15T14:00:06;2.93;;;1.13;;
70505;SDS011;58032;49.820;6.274;2022-11-15T14:02:49;3.03;;;1.25;;
70505;SDS011;58032;49.820;6.274;2022-11-15T14:05:17;3.83;;;1.45;;
70505;SDS011;58032;49.820;6.274;2022-11-15T14:07:54;3.17;;;1.65;;
70505;SDS011;58032;49.820;6.274;2022-11-15T14:13:02;3.77;;;1.63;;
70505;SDS011;58032;49.820;6.274;2022-11-15T14:15:32;4.68;;;1.80;;
70505;SDS011;58032;49.820;6.274;2022-11-15T14:18:01;6.32;;;1.50;;
70505;SDS011;58032;49.820;6.274;2022-11-15T14:20:33;3.65;;;1.10;;
70505;SDS011;58032;49.820;6.274;2022-11-15T14:23:18;4.30;;;1.50;;
70505;SDS011;58032;49.820;6.274;2022-11-15T14:25:56;3.03;;;1.40;;
70505;SDS011;58032;49.820;6.274;2022-11-15T14:30:52;4.38;;;1.40;;
70505;SDS011;58032;49.820;6.274;2022-11-15T14:35:51;4.90;;;1.40;;
70505;SDS011;58032;49.820;6.274;2022-11-15T14:38:19;4.30;;;1.30;;
70505;SDS011;58032;49.820;6.274;2022-11-15T14:40:45;3.05;;;1.10;;
70505;SDS011;58032;49.820;6.274;2022-11-15T14:43:13;2.92;;;1.05;;
70505;SDS011;58032;49.820;6.274;2022-11-15T14:45:40;4.75;;;1.40;;
70505;SDS011;58032;49.820;6.274;2022-11-15T14:48:07;3.67;;;1.20;;
70505;SDS011;58032;49.820;6.274;2022-11-15T14:50:35;3.60;;;0.90;;
70505;SDS011;58032;49.820;6.274;2022-11-15T14:53:03;3.72;;;0.90;;
70505;SDS011;58032;49.820;6.274;2022-11-15T14:55:34;3.45;;;1.45;;
70505;SDS011;58032;49.820;6.274;2022-11-15T14:58:03;2.75;;;1.02;;
70505;SDS011;58032;49.820;6.274;2022-11-15T15:00:31;4.65;;;0.88;;
70505;SDS011;58032;49.820;6.274;2022-11-15T15:03:00;3.33;;;1.07;;
70505;SDS011;58032;49.820;6.274;2022-11-15T15:05:34;4.05;;;1.02;;
70505;SDS011;58032;49.820;6.274;2022-11-15T15:08:06;3.97;;;1.00;;
70505;SDS011;58032;49.820;6.274;2022-11-15T15:10:34;3.78;;;1.10;;
70505;SDS011;58032;49.820;6.274;2022-11-15T15:13:08;3.03;;;1.00;;
70505;SDS011;58032;49.820;6.274;2022-11-15T15:15:47;3.73;;;1.10;;
70505;SDS011;58032;49.820;6.274;2022-11-15T15:18:15;4.45;;;1.10;;
70505;SDS011;58032;49.820;6.274;2022-11-15T15:20:42;3.92;;;0.93;;
70505;SDS011;58032;49.820;6.274;2022-11-15T15:23:16;3.67;;;1.00;;
70505;SDS011;58032;49.820;6.274;2022-11-15T15:25:44;3.40;;;1.15;;
70505;SDS011;58032;49.820;6.274;2022-11-15T15:28:12;3.87;;;1.00;;
70505;SDS011;58032;49.820;6.274;2022-11-15T15:30:40;3.65;;;1.13;;
70505;SDS011;58032;49.820;6.274;2022-11-15T15:33:07;3.47;;;1.30;;
70505;SDS011;58032;49.820;6.274;2022-11-15T15:35:34;3.47;;;1.10;;
70505;SDS011;58032;49.820;6.274;2022-11-15T15:38:02;3.38;;;1.20;;
70505;SDS011;58032;49.820;6.274;2022-11-15T15:40:30;3.97;;;1.57;;
70505;SDS011;58032;49.820;6.274;2022-11-15T15:42:58;4.43;;;1.20;;
70505;SDS011;58032;49.820;6.274;2022-11-15T15:45:26;3.33;;;1.08;;
70505;SDS011;58032;49.820;6.274;2022-11-15T15:47:54;3.83;;;1.25;;
70505;SDS011;58032;49.820;6.274;2022-11-15T15:50:24;4.45;;;1.00;;
70505;SDS011;58032;49.820;6.274;2022-11-15T15:52:57;2.83;;;1.03;;
70505;SDS011;58032;49.820;6.274;2022-11-15T15:55:25;3.03;;;0.90;;
70505;SDS011;58032;49.820;6.274;2022-11-15T15:57:53;3.15;;;1.30;;
70505;SDS011;58032;49.820;6.274;2022-11-15T16:00:21;3.25;;;1.00;;
70505;SDS011;58032;49.820;6.274;2022-11-15T16:02:50;2.92;;;1.10;;
70505;SDS011;58032;49.820;6.274;2022-11-15T16:05:18;4.67;;;1.30;;
70505;SDS011;58032;49.820;6.274;2022-11-15T16:07:45;4.10;;;1.02;;
70505;SDS011;58032;49.820;6.274;2022-11-15T16:10:26;3.65;;;1.10;;
70505;SDS011;58032;49.820;6.274;2022-11-15T16:12:55;3.22;;;1.20;;
70505;SDS011;58032;49.820;6.274;2022-11-15T16:15:24;3.40;;;1.27;;
70505;SDS011;58032;49.820;6.274;2022-11-15T16:17:54;3.87;;;1.30;;
70505;SDS011;58032;49.820;6.274;2022-11-15T16:20:32;5.00;;;1.10;;
70505;SDS011;58032;49.820;6.274;2022-11-15T16:23:09;5.05;;;1.23;;
70505;SDS011;58032;49.820;6.274;2022-11-15T16:28:23;4.85;;;2.10;;
70505;SDS011;58032;49.820;6.274;2022-11-15T16:31:26;6.03;;;1.60;;
70505;SDS011;58032;49.820;6.274;2022-11-15T16:33:47;3.90;;;1.80;;
70505;SDS011;58032;49.820;6.274;2022-11-15T16:36:21;3.42;;;1.33;;
70505;SDS011;58032;49.820;6.274;2022-11-15T16:38:52;4.25;;;1.25;;
70505;SDS011;58032;49.820;6.274;2022-11-15T16:41:19;5.50;;;1.30;;
70505;SDS011;58032;49.820;6.274;2022-11-15T16:43:49;4.67;;;1.30;;
70505;SDS011;58032;49.820;6.274;2022-11-15T16:46:17;4.88;;;1.58;;
70505;SDS011;58032;49.820;6.274;2022-11-15T16:48:45;5.50;;;1.48;;
70505;SDS011;58032;49.820;6.274;2022-11-15T16:51:13;3.25;;;1.13;;
70505;SDS011;58032;49.820;6.274;2022-11-15T16:53:41;5.88;;;1.58;;
70505;SDS011;58032;49.820;6.274;2022-11-15T16:56:14;3.13;;;1.17;;
70505;SDS011;58032;49.820;6.274;2022-11-15T16:58:49;4.22;;;1.42;;
70505;SDS011;58032;49.820;6.274;2022-11-15T17:01:20;5.00;;;2.00;;
70505;SDS011;58032;49.820;6.274;2022-11-15T17:03:49;4.43;;;1.73;;
70505;SDS011;58032;49.820;6.274;2022-11-15T17:06:16;5.25;;;1.67;;
70505;SDS011;58032;49.820;6.274;2022-11-15T17:08:44;4.43;;;1.17;;
70505;SDS011;58032;49.820;6.274;2022-11-15T17:11:15;3.63;;;1.52;;
70505;SDS011;58032;49.820;6.274;2022-11-15T17:13:47;3.20;;;1.15;;
70505;SDS011;58032;49.820;6.274;2022-11-15T17:16:16;3.42;;;1.10;;
70505;SDS011;58032;49.820;6.274;2022-11-15T17:18:43;3.42;;;1.35;;
70505;SDS011;58032;49.820;6.274;2022-11-15T17:21:15;4.10;;;1.40;;
70505;SDS011;58032;49.820;6.274;2022-11-15T17:23:43;3.63;;;1.08;;
70505;SDS011;58032;49.820;6.274;2022-11-15T17:26:10;4.82;;;1.70;;
70505;SDS011;58032;49.820;6.274;2022-11-15T17:28:56;3.53;;;1.38;;
70505;SDS011;58032;49.820;6.274;2022-11-15T17:31:23;4.55;;;1.80;;
70505;SDS011;58032;49.820;6.274;2022-11-15T17:33:50;4.50;;;1.47;;
70505;SDS011;58032;49.820;6.274;2022-11-15T17:36:17;4.95;;;1.70;;
70505;SDS011;58032;49.820;6.274;2022-11-15T17:38:45;4.63;;;1.63;;
70505;SDS011;58032;49.820;6.274;2022-11-15T17:41:15;5.97;;;1.70;;
70505;SDS011;58032;49.820;6.274;2022-11-15T17:43:42;4.78;;;2.10;;
70505;SDS011;58032;49.820;6.274;2022-11-15T17:46:11;4.00;;;1.60;;
70505;SDS011;58032;49.820;6.274;2022-11-15T17:48:43;5.03;;;1.95;;
70505;SDS011;58032;49.820;6.274;2022-11-15T17:51:12;4.18;;;1.75;;
70505;SDS011;58032;49.820;6.274;2022-11-15T17:53:41;4.43;;;1.70;;
70505;SDS011;58032;49.820;6.274;2022-11-15T17:56:10;7.63;;;2.10;;
70505;SDS011;58032;49.820;6.274;2022-11-15T17:58:39;3.90;;;1.80;;
70505;SDS011;58032;49.820;6.274;2022-11-15T18:01:17;4.40;;;1.92;;
70505;SDS011;58032;49.820;6.274;2022-11-15T18:03:45;3.78;;;1.80;;
70505;SDS011;58032;49.820;6.274;2022-11-15T18:06:12;5.25;;;2.15;;
70505;SDS011;58032;49.820;6.274;2022-11-15T18:08:41;6.72;;;2.20;;
70505;SDS011;58032;49.820;6.274;2022-11-15T18:11:14;6.07;;;2.23;;
70505;SDS011;58032;49.820;6.274;2022-11-15T18:14:08;5.50;;;2.00;;
70505;SDS011;58032;49.820;6.274;2022-11-15T18:16:38;4.72;;;2.17;;